Time;durP1;ratioP1;P1;durP2;ratioP2;P2;SDS_P1;SDS_P2;PMS_P1;PMS_P2;Temp;Humidity;BMP_temperature;BMP_pressure;BME280_temperature;BME280_humidity;BME280_pressure;Samples;Min_cycle;Max_cycle;Signal;HPM_P1;HPM_P2
2022/12/13 00:01:54;;;;;;;;;48.25;37.75;;;;;-0.77;100.00;99948.06;6201628;22;45565;-84
2022/12/13 00:04:22;;;;;;;;;34.67;31.00;;;;;-0.80;100.00;99943.63;6229009;22;46719;-83
2022/12/13 00:06:52;;;;;;;;;35.00;30.50;;;;;-0.47;100.00;99985.16;6233974;22;44753;-83
2022/12/13 00:09:19;;;;;;;;;34.25;27.75;;;;;-0.50;100.00;99979.81;6200623;22;45432;-84
2022/12/13 00:11:45;;;;;;;;;32.00;31.25;;;;;-0.65;100.00;99964.31;6176834;22;44824;-84
2022/12/13 00:14:21;;;;;;;;;37.50;31.25;;;;;-0.52;100.00;99987.56;6200968;22;45981;-84
2022/12/13 00:16:49;;;;;;;;;31.33;28.67;;;;;-0.53;100.00;99977.91;6201546;22;45306;-84
2022/12/13 00:19:16;;;;;;;;;36.75;31.75;;;;;-0.54;100.00;99984.00;6200938;23;45478;-84
2022/12/13 00:21:42;;;;;;;;;28.00;25.50;;;;;-0.54;100.00;99977.88;6197648;23;45230;-85
2022/12/13 00:24:09;;;;;;;;;29.25;22.75;;;;;-0.76;100.00;99939.44;6169075;23;47609;-83
2022/12/13 00:26:35;;;;;;;;;38.67;28.00;;;;;-0.56;100.00;99971.69;6193983;23;44743;-84
2022/12/13 00:29:03;;;;;;;;;34.33;29.00;;;;;-0.94;100.00;99915.97;6195598;23;44779;-84
2022/12/13 00:31:32;;;;;;;;;33.00;30.33;;;;;-0.91;100.00;99919.63;6168539;23;45402;-83
2022/12/13 00:33:59;;;;;;;;;20.67;20.67;;;;;-0.59;100.00;99968.94;6217965;22;46897;-83
2022/12/13 00:36:31;;;;;;;;;36.25;33.75;;;;;-0.70;100.00;99947.56;6195742;23;44670;-83
2022/12/13 00:39:00;;;;;;;;;32.33;28.00;;;;;-0.58;100.00;99968.13;6194564;23;45411;-82
2022/12/13 00:41:34;;;;;;;;;24.25;23.00;;;;;-0.57;100.00;99962.06;6168187;23;45309;-82
2022/12/13 00:44:01;;;;;;;;;31.33;27.33;;;;;-0.56;100.00;99958.63;6218023;22;47233;-83
2022/12/13 00:46:30;;;;;;;;;33.67;30.00;;;;;-0.76;100.00;99926.38;6167215;23;45250;-84
2022/12/13 00:48:58;;;;;;;;;33.00;31.50;;;;;-0.83;100.00;99912.13;6169041;23;45368;-84
2022/12/13 00:51:26;;;;;;;;;28.75;26.75;;;;;-0.56;100.00;99974.31;6196559;22;45209;-84
2022/12/13 00:53:53;;;;;;;;;34.50;30.50;;;;;-0.56;100.00;99969.09;6197028;23;45618;-84
2022/12/13 00:56:24;;;;;;;;;31.00;28.00;;;;;-0.89;100.00;99906.63;6168569;23;45490;-83
2022/12/13 00:58:50;;;;;;;;;32.67;25.67;;;;;-0.92;100.00;99911.72;6194082;23;45689;-83
2022/12/13 01:01:19;;;;;;;;;37.75;30.75;;;;;-0.56;100.00;99974.31;6169622;23;44967;-84
2022/12/13 01:03:45;;;;;;;;;32.67;27.67;;;;;-0.64;100.00;99960.88;6220521;22;47232;-84
2022/12/13 01:06:19;;;;;;;;;28.50;27.00;;;;;-0.71;100.00;99946.63;6195014;23;45406;-84
2022/12/13 01:08:45;;;;;;;;;21.67;20.33;;;;;-0.79;100.00;99918.41;6196356;22;44884;-84
2022/12/13 01:11:12;;;;;;;;;29.00;25.00;;;;;-0.62;100.00;99954.00;6195500;23;45320;-84
2022/12/13 01:13:37;;;;;;;;;13.33;13.00;;;;;-0.77;100.00;99927.19;6193491;23;45355;-84
2022/12/13 01:16:06;;;;;;;;;34.00;27.75;;;;;-0.88;100.00;99913.66;6168136;23;45401;-83
2022/12/13 01:18:32;;;;;;;;;22.25;20.00;;;;;-0.88;100.00;99905.81;6195140;23;45316;-84
2022/12/13 01:21:03;;;;;;;;;25.00;25.00;;;;;-0.66;100.00;99941.66;6196142;23;45243;-83
2022/12/13 01:23:30;;;;;;;;;31.75;26.25;;;;;-0.92;100.00;99896.06;6196322;23;45464;-84
2022/12/13 01:25:56;;;;;;;;;31.00;24.75;;;;;-0.59;100.00;99958.47;6195630;23;44718;-84
2022/12/13 01:28:23;;;;;;;;;29.25;27.00;;;;;-0.58;100.00;99955.06;6168542;23;45361;-84
2022/12/13 01:31:04;;;;;;;;;30.25;27.75;;;;;-0.59;100.00;99956.75;6167965;23;45391;-83
2022/12/13 01:33:29;;;;;;;;;25.25;25.00;;;;;-0.67;100.00;99945.94;6168943;23;47089;-84
2022/12/13 01:35:56;;;;;;;;;28.00;21.33;;;;;-0.65;100.00;99952.16;6167567;23;45177;-83
2022/12/13 01:38:22;;;;;;;;;24.75;23.50;;;;;-0.82;100.00;99929.59;6166436;23;45449;-83
2022/12/13 01:40:56;;;;;;;;;35.00;29.50;;;;;-0.71;100.00;99948.34;6169339;23;44887;-83
2022/12/13 01:43:23;;;;;;;;;28.25;24.50;;;;;-0.78;100.00;99936.75;6169026;23;45413;-84
2022/12/13 01:45:49;;;;;;;;;23.67;23.00;;;;;-0.94;100.00;99905.53;6195768;23;45421;-83
2022/12/13 01:48:38;;;;;;;;;30.00;26.00;;;;;-0.65;100.00;99954.78;6197301;23;45341;-84
2022/12/13 01:51:08;;;;;;;;;22.33;18.33;;;;;-0.77;100.00;99932.41;6193872;23;44819;-84
2022/12/13 01:53:38;;;;;;;;;25.75;21.75;;;;;-0.77;100.00;99932.41;6195038;23;46329;-82
2022/12/13 01:56:12;;;;;;;;;28.50;22.25;;;;;-0.92;100.00;99922.16;6190951;23;45323;-83
2022/12/13 01:58:40;;;;;;;;;29.25;24.50;;;;;-0.87;100.00;99926.78;6167369;23;44892;-84
2022/12/13 02:01:05;;;;;;;;;24.75;21.75;;;;;-0.68;100.00;99954.63;6169619;23;45344;-84
2022/12/13 02:03:33;;;;;;;;;26.00;22.00;;;;;-0.91;100.00;99924.84;6169104;23;45319;-83
2022/12/13 02:06:04;;;;;;;;;29.25;26.25;;;;;-0.92;100.00;99932.59;6168980;23;44802;-83
2022/12/13 02:08:30;;;;;;;;;30.50;24.25;;;;;-1.06;100.00;99904.13;6168311;23;44783;-84
2022/12/13 02:11:00;;;;;;;;;32.25;25.50;;;;;-0.88;100.00;99939.75;6195405;23;45566;-85
2022/12/13 02:13:26;;;;;;;;;28.00;24.33;;;;;-0.91;100.00;99939.59;6169767;23;48214;-85
2022/12/13 02:16:01;;;;;;;;;27.00;24.00;;;;;-0.73;100.00;99960.44;6194321;23;45275;-84
2022/12/13 02:18:50;;;;;;;;;24.67;20.33;;;;;-0.91;100.00;99944.81;6169282;23;44896;-84
2022/12/13 02:21:27;;;;;;;;;30.75;26.25;;;;;-1.02;100.00;99920.84;6073957;23;45258;-85
2022/12/13 02:24:51;;;;;;;;;26.67;21.33;;;;;-0.83;100.00;99954.81;6073234;23;45662;-85
2022/12/13 02:27:38;;;;;;;;;24.67;16.67;;;;;-0.76;100.00;99953.38;5902504;24;45279;-84
2022/12/13 02:30:21;;;;;;;;;23.33;20.00;;;;;-0.85;100.00;99940.78;5902566;24;45383;-84
2022/12/13 02:33:02;;;;;;;;;13.00;13.00;;;;;-0.96;100.00;99921.13;5903068;24;45238;-84
2022/12/13 02:35:43;;;;;;;;;23.67;21.67;;;;;-0.74;99.29;99959.56;5903784;24;45432;-85
2022/12/13 02:38:37;;;;;;;;;24.00;24.00;;;;;-0.73;98.74;99958.72;5933118;24;44852;-84
2022/12/13 02:41:11;;;;;;;;;28.67;24.00;;;;;-0.73;98.97;99956.09;5934094;23;45340;-84
2022/12/13 02:44:00;;;;;;;;;25.33;20.00;;;;;-1.05;100.00;99895.50;5934166;24;44762;-84
2022/12/13 02:46:31;;;;;;;;;15.67;15.67;;;;;-0.90;100.00;99921.41;5932964;24;45212;-84
2022/12/13 02:48:59;;;;;;;;;9.67;5.67;;;;;-0.90;100.00;99910.97;5934184;24;45357;-85
2022/12/13 02:51:27;;;;;;;;;37.00;26.25;;;;;-0.67;100.00;99953.78;5931543;24;45353;-85
2022/12/13 02:53:53;;;;;;;;;26.75;25.50;;;;;-0.80;99.94;99933.16;5932601;24;45701;-85
2022/12/13 02:56:18;;;;;;;;;20.00;17.75;;;;;-0.74;100.00;99941.28;5932136;24;47298;-84
2022/12/13 02:58:52;;;;;;;;;25.33;21.33;;;;;-0.89;98.63;99902.31;5969609;23;45291;-84
2022/12/13 03:01:51;;;;;;;;;16.00;14.33;;;;;-0.67;97.63;99945.94;5965912;23;45385;-84
2022/12/13 03:08:17;;;;;;;;;22.33;21.33;;;;;-0.68;98.13;99938.94;6045826;23;46023;-84
2022/12/13 03:11:12;;;;;;;;;20.33;16.00;;;;;-0.68;98.49;99927.63;6070159;23;45358;-84
2022/12/13 03:13:58;;;;;;;;;29.33;21.00;;;;;-0.67;96.46;99934.63;6073847;23;45229;-83
2022/12/13 03:16:39;;;;;;;;;19.33;19.33;;;;;-0.70;97.18;99934.50;6073876;23;45195;-83
2022/12/13 03:19:09;;;;;;;;;14.67;14.67;;;;;-0.70;96.28;99930.16;6073838;23;47233;-84
2022/12/13 03:21:44;;;;;;;;;26.67;20.33;;;;;-0.71;96.46;99928.34;6049718;23;44778;-84
2022/12/13 03:24:10;;;;;;;;;23.00;23.00;;;;;-0.79;97.42;99908.84;6073293;23;45473;-83
2022/12/13 03:26:37;;;;;;;;;20.33;20.00;;;;;-0.79;96.73;99919.28;6074291;23;45415;-84
2022/12/13 03:29:02;;;;;;;;;22.67;22.67;;;;;-0.75;96.73;99925.53;6072913;23;45580;-84
2022/12/13 03:31:28;;;;;;;;;21.67;20.33;;;;;-0.80;95.49;99912.28;6073104;23;45690;-84
2022/12/13 03:33:53;;;;;;;;;21.67;19.67;;;;;-0.80;96.01;99917.50;6074681;23;45387;-84
2022/12/13 03:36:19;;;;;;;;;25.00;19.00;;;;;-0.82;96.63;99916.53;6050769;23;44956;-84
2022/12/13 03:38:49;;;;;;;;;28.00;25.00;;;;;-1.01;97.38;99886.06;6050700;23;48155;-84
2022/12/13 03:41:19;;;;;;;;;24.33;21.67;;;;;-1.01;96.71;99884.38;6127684;22;45221;-83
2022/12/13 03:43:45;;;;;;;;;19.33;19.33;;;;;-0.82;96.65;99919.16;6197728;22;45391;-83
2022/12/13 03:46:11;;;;;;;;;22.00;19.00;;;;;-1.06;96.52;99883.25;6199706;22;44767;-83
2022/12/13 03:48:37;;;;;;;;;23.00;21.33;;;;;-0.84;96.63;99920.81;6196966;22;46716;-83
2022/12/13 03:51:03;;;;;;;;;21.67;21.67;;;;;-0.87;98.15;99908.50;6224581;22;45286;-84
2022/12/13 03:53:29;;;;;;;;;21.00;21.00;;;;;-1.02;98.11;99873.84;6197508;22;44721;-84
2022/12/13 03:55:55;;;;;;;;;19.75;19.75;;;;;-0.83;97.47;99913.03;6221838;22;45213;-84
2022/12/13 03:58:20;;;;;;;;;22.25;19.00;;;;;-0.86;97.77;99912.00;6221224;22;47256;-84
2022/12/13 04:00:46;;;;;;;;;19.25;19.25;;;;;-1.20;96.97;99853.03;6194913;22;44764;-84
2022/12/13 04:03:12;;;;;;;;;21.33;19.67;;;;;-1.19;98.23;99859.13;6196663;22;45303;-83
2022/12/13 04:05:37;;;;;;;;;20.75;19.00;;;;;-0.96;98.19;99899.34;6221932;22;45394;-82
2022/12/13 04:08:03;;;;;;;;;28.75;25.75;;;;;-0.79;98.42;99924.50;6225309;22;47945;-82
2022/12/13 04:10:29;;;;;;;;;26.75;21.75;;;;;-0.84;97.05;99920.81;6221380;22;45385;-83
2022/12/13 04:15:39;;;;;;;;;22.25;20.75;;;;;-0.89;96.87;99914.47;6223070;22;45255;-83
2022/12/13 04:18:05;;;;;;;;;22.25;20.75;;;;;-1.05;97.26;99890.28;6195803;22;46618;-82
2022/12/13 04:20:31;;;;;;;;;30.25;23.25;;;;;-0.90;97.51;99917.91;6222624;22;44785;-84
2022/12/13 04:22:57;;;;;;;;;25.00;20.33;;;;;-1.05;96.78;99898.09;6201245;22;45313;-83
2022/12/13 04:25:25;;;;;;;;;26.25;20.75;;;;;-1.03;96.97;99893.84;6202711;22;45414;-84
2022/12/13 04:27:51;;;;;;;;;21.00;20.00;;;;;-0.98;97.98;99908.81;6227473;22;47768;-83
2022/12/13 04:30:16;;;;;;;;;19.75;19.75;;;;;-1.04;98.14;99889.44;6203039;22;45228;-85
2022/12/13 04:32:42;;;;;;;;;36.00;29.75;;;;;-1.24;96.70;99872.84;6203147;22;44719;-84
2022/12/13 04:35:10;;;;;;;;;32.00;28.00;;;;;-1.03;96.49;99898.16;6230087;22;45196;-83
2022/12/13 04:37:36;;;;;;;;;25.75;21.00;;;;;-1.04;97.22;99894.66;6227162;22;47625;-84
2022/12/13 04:40:02;;;;;;;;;25.00;25.00;;;;;-1.34;97.37;99848.88;6225688;22;45437;-84
2022/12/13 04:42:28;;;;;;;;;18.00;9.50;;;;;-1.08;96.47;99890.13;6226636;22;45731;-84
2022/12/13 04:45:00;;;;;;;;;28.33;23.33;;;;;-1.45;97.41;99831.00;6199281;22;45225;-84
2022/12/13 04:50:49;;;;;;;;;26.50;23.00;;;;;-1.15;97.09;99876.72;6229001;22;45291;-84
2022/12/13 04:53:15;;;;;;;;;32.25;26.50;;;;;-1.18;97.52;99874.84;6232475;22;44685;-84
2022/12/13 04:55:41;;;;;;;;;32.50;27.00;;;;;-1.18;97.60;99882.69;6230911;22;45477;-84
2022/12/13 04:58:07;;;;;;;;;28.25;25.75;;;;;-1.16;97.66;99888.88;6204530;22;46654;-84
2022/12/13 05:00:32;;;;;;;;;28.00;25.75;;;;;-1.17;97.70;99884.50;6205046;22;45327;-84
2022/12/13 05:03:01;;;;;;;;;32.50;29.25;;;;;-1.16;98.24;99882.75;6205173;22;44677;-84
2022/12/13 05:05:27;;;;;;;;;28.25;25.00;;;;;-1.19;98.95;99880.91;6204557;22;44702;-83
2022/12/13 05:07:52;;;;;;;;;28.75;26.00;;;;;-1.16;98.97;99878.44;6227777;22;45434;-83
2022/12/13 05:10:17;;;;;;;;;33.00;29.00;;;;;-1.14;98.13;99879.41;6183817;23;45329;-83
2022/12/13 05:12:43;;;;;;;;;30.00;27.50;;;;;-1.15;98.78;99877.63;6171010;23;45487;-83
2022/12/13 05:15:08;;;;;;;;;33.25;29.25;;;;;-1.20;98.29;99863.47;6197126;23;44735;-82
2022/12/13 05:17:34;;;;;;;;;16.00;15.00;;;;;-1.18;98.61;99872.25;6170729;23;47332;-82
2022/12/13 05:20:00;;;;;;;;;25.50;21.00;;;;;-1.12;98.72;99877.75;6169662;23;45251;-82
2022/12/13 05:22:25;;;;;;;;;27.00;27.00;;;;;-1.21;97.88;99869.50;6170881;23;45463;-84
2022/12/13 05:24:51;;;;;;;;;26.75;18.50;;;;;-1.11;97.46;99879.56;6170034;23;45479;-83
2022/12/13 05:27:17;;;;;;;;;28.75;26.25;;;;;-1.09;98.26;99896.19;6198578;23;46104;-84
2022/12/13 05:33:07;;;;;;;;;27.00;21.67;;;;;-1.16;97.74;99883.66;6197331;23;45346;-82
2022/12/13 05:35:32;;;;;;;;;27.00;27.00;;;;;-1.15;97.71;99876.72;6197733;23;44962;-82
2022/12/13 05:37:58;;;;;;;;;29.25;24.75;;;;;-1.18;97.65;99882.69;6170092;23;45297;-83
2022/12/13 05:40:25;;;;;;;;;22.25;21.00;;;;;-1.16;97.87;99888.88;6171580;23;45323;-84
2022/12/13 05:42:51;;;;;;;;;26.50;24.00;;;;;-1.21;98.45;99882.56;6198823;22;45356;-83
2022/12/13 05:45:45;;;;;;;;;23.75;21.00;;;;;-1.15;97.95;99906.31;6172468;23;45191;-83
2022/12/13 05:48:11;;;;;;;;;27.75;25.75;;;;;-1.15;98.75;99901.09;6171247;23;46867;-84
2022/12/13 05:50:41;;;;;;;;;19.00;16.50;;;;;-1.13;98.41;99901.16;6170563;23;45310;-83
2022/12/13 05:53:08;;;;;;;;;28.75;22.25;;;;;-1.18;98.38;99889.63;6173012;23;45296;-84
2022/12/13 05:55:36;;;;;;;;;30.25;27.75;;;;;-1.19;98.00;99896.56;6177159;23;45409;-84
2022/12/13 05:58:02;;;;;;;;;33.00;28.75;;;;;-1.18;97.74;99892.22;6200904;23;45372;-84
2022/12/13 06:00:27;;;;;;;;;22.25;22.25;;;;;-1.18;98.35;99908.78;6173646;23;45279;-84
2022/12/13 06:02:55;;;;;;;;;26.50;21.00;;;;;-1.22;97.57;99901.63;6201891;22;45379;-83
2022/12/13 06:05:21;;;;;;;;;28.25;25.75;;;;;-1.18;97.75;99908.78;6200964;23;45539;-84
2022/12/13 06:07:47;;;;;;;;;36.25;32.25;;;;;-1.29;98.00;99892.63;6145222;23;46568;-84
2022/12/13 06:10:21;;;;;;;;;22.00;18.75;;;;;-1.22;98.29;99915.56;6179530;22;46142;-84
2022/12/13 06:12:47;;;;;;;;;3.00;0.00;;;;;-1.30;99.49;99902.97;6200183;22;45363;-84
2022/12/13 06:15:12;;;;;;;;;28.00;26.25;;;;;-1.16;99.41;99928.00;6201594;22;45438;-84
2022/12/13 06:17:38;;;;;;;;;28.00;25.00;;;;;-1.14;99.86;99922.88;6226244;22;46484;-84
2022/12/13 06:20:04;;;;;;;;;28.50;25.25;;;;;-1.06;100.00;99925.00;6201185;22;45338;-84
2022/12/13 06:22:31;;;;;;;;;30.75;26.50;;;;;-1.02;99.51;99926.06;6228767;22;44801;-83
2022/12/13 06:24:57;;;;;;;;;30.25;25.25;;;;;-1.08;99.66;99918.81;6202586;22;45099;-82
2022/12/13 06:27:23;;;;;;;;;33.00;31.00;;;;;-1.08;99.79;99921.44;6199926;22;46990;-83
2022/12/13 06:29:48;;;;;;;;;27.00;24.75;;;;;-1.09;99.83;99919.66;6199831;22;44833;-83
2022/12/13 06:32:14;;;;;;;;;27.25;27.25;;;;;-1.11;99.81;99920.38;6200167;22;45263;-83
2022/12/13 06:34:39;;;;;;;;;32.00;28.75;;;;;-1.15;100.00;99919.38;6200977;22;45472;-83
2022/12/13 06:37:07;;;;;;;;;31.50;29.25;;;;;-1.15;100.00;99914.16;6202039;22;46957;-83
2022/12/13 06:39:33;;;;;;;;;21.25;21.25;;;;;-1.27;100.00;99887.50;6201392;22;44987;-83
2022/12/13 06:42:04;;;;;;;;;30.00;25.50;;;;;-1.24;100.00;99891.09;6229203;22;45328;-83
2022/12/13 06:44:30;;;;;;;;;30.50;26.50;;;;;-1.09;100.00;99909.22;6228721;22;45307;-84
2022/12/13 06:46:56;;;;;;;;;30.75;29.50;;;;;-1.09;100.00;99909.22;6201298;22;46758;-85
2022/12/13 06:49:21;;;;;;;;;23.00;21.00;;;;;-1.12;99.28;99893.41;6227231;22;45251;-84
2022/12/13 06:51:48;;;;;;;;;37.25;31.25;;;;;-1.13;99.71;99886.41;6228662;22;45384;-85
2022/12/13 06:54:22;;;;;;;;;17.00;17.00;;;;;-1.10;99.93;99896.09;6201392;22;45494;-83
2022/12/13 06:56:47;;;;;;;;;30.00;24.50;;;;;-1.08;98.99;99890.13;6198775;22;46497;-83
2022/12/13 06:59:13;;;;;;;;;28.25;25.50;;;;;-1.14;98.07;99874.19;6199552;22;45329;-84
2022/12/13 07:01:40;;;;;;;;;25.75;23.50;;;;;-1.11;97.36;99884.78;6196604;22;45420;-83
2022/12/13 07:04:07;;;;;;;;;28.00;25.50;;;;;-1.08;97.29;99895.34;6225593;22;44836;-85
2022/12/13 07:06:33;;;;;;;;;28.75;26.00;;;;;-1.10;97.16;99891.75;6223916;22;47348;-84
2022/12/13 07:09:08;;;;;;;;;24.25;20.50;;;;;-1.13;98.14;99875.97;6228211;22;45546;-84
2022/12/13 07:11:43;;;;;;;;;29.50;27.00;;;;;-1.14;97.78;99876.78;6199783;22;45736;-84
2022/12/13 07:14:08;;;;;;;;;31.75;28.50;;;;;-1.26;98.16;99852.75;6202190;22;45300;-84
2022/12/13 07:17:07;;;;;;;;;24.25;21.75;;;;;-1.04;97.84;99892.03;6199666;22;46838;-85
2022/12/13 07:19:32;;;;;;;;;28.25;24.75;;;;;-1.04;97.35;99896.38;6204840;22;45240;-85
2022/12/13 07:22:06;;;;;;;;;36.25;30.50;;;;;-1.35;97.98;99848.00;6201273;22;44663;-85
2022/12/13 07:24:34;;;;;;;;;27.50;27.50;;;;;-1.43;98.44;99839.81;6194259;22;45260;-85
2022/12/13 07:26:59;;;;;;;;;43.00;34.25;;;;;-1.22;97.82;99876.41;6222910;22;45318;-85
2022/12/13 07:29:28;;;;;;;;;21.25;21.00;;;;;-1.30;98.28;99861.25;6197459;22;44702;-83
2022/12/13 07:31:54;;;;;;;;;33.25;31.50;;;;;-1.28;97.80;99870.03;6202035;22;45427;-86
2022/12/13 07:34:38;;;;;;;;;28.50;25.50;;;;;-1.17;97.43;99889.72;6206459;22;45334;-86
2022/12/13 07:37:19;;;;;;;;;31.50;27.50;;;;;-1.15;97.23;99893.28;6229078;22;46294;-85
2022/12/13 07:39:48;;;;;;;;;27.00;23.25;;;;;-1.22;98.15;99879.03;6203388;22;45294;-85
2022/12/13 07:42:16;;;;;;;;;34.25;29.75;;;;;-1.19;97.52;99891.34;6229912;22;45392;-86
2022/12/13 07:44:41;;;;;;;;;30.75;25.50;;;;;-1.09;96.83;99908.31;6231457;22;44733;-84
2022/12/13 07:47:07;;;;;;;;;32.50;32.50;;;;;-1.29;97.00;99889.13;6230926;22;45059;-86
2022/12/13 07:49:32;;;;;;;;;37.25;31.00;;;;;-1.21;96.91;99906.03;6229657;22;45304;-86
2022/12/13 07:52:00;;;;;;;;;26.50;22.50;;;;;-1.16;96.27;99912.34;6233206;22;45761;-86
2022/12/13 07:54:25;;;;;;;;;30.50;26.50;;;;;-1.19;96.22;99917.44;6206320;22;45268;-86
2022/12/13 07:56:51;;;;;;;;;32.00;29.00;;;;;-1.05;95.01;99941.56;6231376;22;46178;-85
2022/12/13 07:59:17;;;;;;;;;39.25;32.75;;;;;-0.97;96.16;99960.19;6233582;22;45289;-85
2022/12/13 08:02:17;;;;;;;;;36.25;34.00;;;;;-1.00;95.18;99958.34;6235459;22;44631;-85
2022/12/13 08:04:48;;;;;;;;;25.00;24.00;;;;;-1.35;95.90;99889.72;6224381;22;44846;-85
2022/12/13 08:07:15;;;;;;;;;33.75;30.75;;;;;-1.10;95.28;99940.44;6204463;22;47843;-87
2022/12/13 08:09:55;;;;;;;;;34.00;32.25;;;;;-1.05;95.79;99939.84;6230215;22;45188;-85
2022/12/13 08:12:28;;;;;;;;;40.50;36.25;;;;;-1.23;95.83;99899.84;6231343;22;45212;-87
2022/12/13 08:15:04;;;;;;;;;34.25;28.00;;;;;-1.10;96.22;99916.97;6206090;22;45289;-86
2022/12/13 08:17:30;;;;;;;;;35.75;31.50;;;;;-1.16;95.54;99908.84;6208200;22;45287;-85
2022/12/13 08:19:56;;;;;;;;;38.75;35.25;;;;;-0.92;95.81;99943.94;6206142;22;45290;-86
2022/12/13 08:22:22;;;;;;;;;27.00;26.75;;;;;-1.06;95.42;99921.50;6205585;22;45434;-85
2022/12/13 08:24:50;;;;;;;;;39.00;38.00;;;;;-1.02;94.36;99929.53;6206988;22;44802;-84
2022/12/13 08:27:22;;;;;;;;;38.75;29.50;;;;;-1.16;93.95;99917.56;6206167;22;46765;-86
2022/12/13 08:29:56;;;;;;;;;36.25;30.50;;;;;-0.97;95.15;99954.97;6204815;22;45380;-85
2022/12/13 08:32:26;;;;;;;;;45.50;40.00;;;;;-0.84;93.76;99967.78;6206476;22;45086;-85
2022/12/13 08:34:53;;;;;;;;;35.00;30.25;;;;;-1.22;93.61;99907.72;6206786;22;44865;-86
2022/12/13 08:37:20;;;;;;;;;39.75;33.50;;;;;-0.95;93.82;99948.09;6233347;22;45230;-87
2022/12/13 08:39:59;;;;;;;;;;;;;;;;;;;;;
2022/12/13 08:42:29;;;;;;;;;37.50;31.25;;;;;-0.95;94.41;99942.88;6232768;22;67947;-87
2022/12/13 08:44:54;;;;;;;;;33.00;27.75;;;;;-0.80;93.89;99959.28;6206921;22;45273;-86
2022/12/13 08:47:45;;;;;;;;;34.75;31.50;;;;;-0.87;93.71;99944.13;6209147;22;46878;-85
2022/12/13 08:50:56;;;;;;;;;39.50;35.00;;;;;-0.99;93.57;99938.34;6180646;23;45329;-87
2022/12/13 08:53:36;;;;;;;;;36.00;32.50;;;;;-0.78;94.61;99968.06;6072677;23;45155;-86
2022/12/13 08:56:07;;;;;;;;;37.75;30.50;;;;;-0.81;93.74;99955.78;6175263;23;45424;-87
2022/12/13 08:58:46;;;;;;;;;;;;;;;;;;;;;
2022/12/13 09:05:08;;;;;;;;;35.75;31.00;;;;;-0.63;93.06;99970.50;6228060;22;44750;-87
2022/12/13 09:08:24;;;;;;;;;;;;;;;;;;;;;
2022/12/13 09:10:59;;;;;;;;;37.50;33.75;;;;;-0.62;91.95;99944.47;6198610;23;74385;-86
2022/12/13 09:17:39;;;;;;;;;35.75;35.75;;;;;-0.64;91.64;99945.22;6201478;23;45489;-87
2022/12/13 09:20:26;;;;;;;;;37.25;35.50;;;;;-0.82;92.97;99913.94;6116255;23;45435;-85
2022/12/13 09:31:34;;;;;;;;;37.75;34.25;;;;;-0.54;92.38;99957.00;6026663;23;45324;-86
2022/12/13 09:50:00;;;;;;;;;;;;;;;;;;;;;
2022/12/13 10:00:26;;;;;;;;;27.00;25.50;;;;;-0.32;88.60;99941.44;6147181;23;44950;-84
2022/12/13 10:03:54;;;;;;;;;27.50;26.75;;;;;-0.58;88.45;99890.66;6126623;23;44736;-86
2022/12/13 10:17:46;;;;;;;;;;;;;;;;;;;;;
2022/12/13 10:20:34;;;;;;;;;;;;;;;;;;;;;
2022/12/13 10:23:19;;;;;;;;;41.75;40.50;;;;;-0.10;86.22;99945.00;6265364;22;74340;-85
2022/12/13 10:26:26;;;;;;;;;;;;;;;;;;;;;
2022/12/13 10:29:42;;;;;;;;;;;;;;;;;;;;;
2022/12/13 10:32:53;;;;;;;;;;;;;;;;;;;;;
2022/12/13 10:39:36;;;;;;;;;;;;;;;;;;;;;
2022/12/13 10:42:46;;;;;;;;;34.00;27.75;;;;;-0.02;84.93;99922.69;6257678;22;44842;-85
2022/12/13 10:45:53;;;;;;;;;43.00;35.00;;;;;-0.10;84.48;99904.09;6198505;23;45336;-84
2022/12/13 11:00:24;;;;;;;;;43.00;37.75;;;;;0.32;84.68;99904.09;6260500;22;44916;-86
2022/12/13 11:52:12;;;;;;;;;44.75;35.75;;;;;1.04;81.56;99834.53;6254211;22;44832;-85
2022/12/13 12:00:54;;;;;;;;;45.75;40.50;;;;;1.15;80.11;99812.22;6292185;22;44898;-85
2022/12/13 12:04:12;;;;;;;;;42.00;35.50;;;;;1.18;78.76;99812.34;6282726;22;44794;-86
2022/12/13 12:08:35;;;;;;;;;;;;;;;;;;;;;
2022/12/13 12:11:16;;;;;;;;;43.50;37.75;;;;;1.20;78.37;99816.81;6265123;22;45068;-85
2022/12/13 12:17:50;;;;;;;;;33.75;32.00;;;;;1.22;76.55;99814.25;6145147;23;44781;-84
2022/12/13 12:20:53;;;;;;;;;39.25;35.75;;;;;1.24;75.37;99825.66;6101181;23;45389;-85
2022/12/13 12:39:42;;;;;;;;;35.25;35.00;;;;;1.40;72.60;99765.13;6170453;23;44719;-84
2022/12/13 12:42:46;;;;;;;;;28.00;28.00;;;;;1.48;72.97;99748.81;6263561;22;45267;-86
2022/12/13 12:45:54;;;;;;;;;40.25;33.00;;;;;1.54;72.74;99734.16;6236124;22;45238;-87
2022/12/13 12:49:10;;;;;;;;;32.50;30.50;;;;;1.62;73.72;99716.09;6239348;22;45193;-87
2022/12/13 12:52:45;;;;;;;;;;;;;;;;;;;;;
2022/12/13 12:55:54;;;;;;;;;33.50;29.25;;;;;1.93;74.68;99690.88;6216594;22;65145;-87
2022/12/13 13:13:08;;;;;;;;;;;;;;;;;;;;;
2022/12/13 13:16:15;;;;;;;;;33.75;29.50;;;;;2.88;70.13;99696.31;6245053;22;45373;-87
2022/12/13 13:23:36;;;;;;;;;41.25;38.25;;;;;2.92;66.54;99690.31;6268103;22;44602;-86
2022/12/13 13:26:06;;;;;;;;;30.75;29.25;;;;;2.86;65.86;99705.88;6183177;23;45071;-87
2022/12/13 13:29:35;;;;;;;;;33.25;29.25;;;;;2.59;67.18;99650.88;6201328;23;44746;-88
2022/12/13 13:33:03;;;;;;;;;34.50;30.75;;;;;2.66;66.16;99644.06;6055870;23;44838;-88
2022/12/13 13:36:33;;;;;;;;;37.50;35.00;;;;;2.99;67.18;99679.13;6078548;23;44883;-86
2022/12/13 13:58:30;;;;;;;;;33.50;29.25;;;;;3.35;68.73;99664.28;6221985;22;46447;-86
2022/12/13 14:05:59;;;;;;;;;;;;;;;;;;;;;
2022/12/13 14:34:51;;;;;;;;;28.00;25.67;;;;;3.60;62.83;99626.38;6250770;22;45123;-85
2022/12/13 14:37:32;;;;;;;;;26.67;25.33;;;;;3.54;59.65;99627.09;6263970;22;44749;-85
2022/12/13 14:40:58;;;;;;;;;;;;;;;;;;;;;
2022/12/13 14:44:23;;;;;;;;;23.67;19.33;;;;;3.88;60.23;99676.97;6253044;22;71401;-86
2022/12/13 14:50:19;;;;;;;;;23.33;23.33;;;;;3.57;58.88;99649.94;6169180;23;44754;-86
2022/12/13 14:53:01;;;;;;;;;31.67;25.67;;;;;3.66;60.79;99638.78;6167119;23;45066;-84
2022/12/13 14:55:36;;;;;;;;;35.33;28.33;;;;;3.87;64.07;99667.31;6144046;23;45556;-85
2022/12/13 15:04:39;;;;;;;;;25.00;22.00;;;;;4.07;63.54;99658.16;6175787;22;44915;-85
2022/12/13 15:08:04;;;;;;;;;27.00;27.00;;;;;4.09;62.86;99677.47;6263019;22;45304;-86
2022/12/13 15:11:55;;;;;;;;;;;;;;;;;;;;;
2022/12/13 15:14:54;;;;;;;;;;;;;;;;;;;;;
2022/12/13 15:18:18;;;;;;;;;;;;;;;;;;;;;
2022/12/13 15:20:53;;;;;;;;;31.33;27.67;;;;;3.98;66.51;99650.06;6169141;23;72007;-87
2022/12/13 15:27:35;;;;;;;;;28.33;25.00;;;;;3.87;64.09;99638.38;6170582;23;45416;-86
2022/12/13 15:30:40;;;;;;;;;;;;;;;;;;;;;
2022/12/13 15:41:25;;;;;;;;;34.00;29.33;;;;;3.45;64.41;99629.50;5834381;24;44813;-87
2022/12/13 15:44:49;;;;;;;;;27.33;26.00;;;;;3.35;63.68;99630.13;5833356;24;45325;-86
2022/12/13 15:51:06;;;;;;;;;30.00;26.33;;;;;3.00;65.03;99588.97;5671067;25;45202;-87
2022/12/13 15:54:11;;;;;;;;;31.00;26.67;;;;;3.18;63.76;99619.19;5700278;24;44860;-85
2022/12/13 16:00:33;;;;;;;;;33.67;27.33;;;;;3.08;63.64;99638.19;5660350;25;44736;-85
2022/12/13 16:03:47;;;;;;;;;;;;;;;;;;;;;
2022/12/13 16:06:27;;;;;;;;;26.00;22.00;;;;;3.05;63.52;99631.13;5738329;24;44936;-84
2022/12/13 16:09:03;;;;;;;;;27.00;23.00;;;;;2.72;64.71;99582.09;5747861;24;45492;-83
2022/12/13 16:11:42;;;;;;;;;30.00;28.00;;;;;3.03;62.97;99632.84;5754350;24;44944;-86
2022/12/13 16:14:38;;;;;;;;;23.67;22.67;;;;;3.03;63.55;99634.53;5835776;24;45238;-85
2022/12/13 16:25:02;;;;;;;;;25.00;24.00;;;;;3.07;64.35;99636.41;6241261;22;45876;-86
2022/12/13 16:27:28;;;;;;;;;27.67;23.67;;;;;2.73;64.72;99577.75;6238644;22;44726;-85
2022/12/13 16:30:33;;;;;;;;;28.67;22.67;;;;;2.74;63.29;99574.28;6262603;22;45272;-86
2022/12/13 16:33:07;;;;;;;;;31.33;23.00;;;;;2.77;64.63;99562.13;6244395;22;44744;-85
2022/12/13 16:35:33;;;;;;;;;32.33;28.00;;;;;2.94;64.13;99588.81;6261799;22;45222;-85
2022/12/13 16:37:59;;;;;;;;;31.67;24.67;;;;;2.83;63.70;99569.28;6259379;22;45347;-85
2022/12/13 16:40:49;;;;;;;;;27.67;25.33;;;;;3.00;63.56;99591.59;6260068;22;45350;-83
2022/12/13 16:43:40;;;;;;;;;28.67;23.67;;;;;2.78;63.76;99563.88;6259762;22;45406;-83
2022/12/13 16:46:15;;;;;;;;;22.67;22.67;;;;;2.75;64.37;99576.06;6261861;22;45101;-85
2022/12/13 16:48:53;;;;;;;;;26.67;23.67;;;;;2.64;63.99;99567.00;6257189;22;45216;-85